createdAt,value
2024-05-09T00:00:45.977Z,29.45
2024-05-09T00:03:13.476Z,28.95
2024-05-09T00:05:41.655Z,28.73
2024-05-09T00:08:10.022Z,29.63
2024-05-09T00:10:39.406Z,28.13
2024-05-09T00:13:08.623Z,27.75
2024-05-09T00:15:36.517Z,29.10
2024-05-09T00:18:05.389Z,29.38
2024-05-09T00:20:38.511Z,28.98
2024-05-09T00:23:12.986Z,28.88
2024-05-09T00:25:42.925Z,27.90
2024-05-09T00:28:12.524Z,29.58
2024-05-09T00:30:39.838Z,29.60
2024-05-09T00:33:08.995Z,29.73
2024-05-09T00:35:38.096Z,28.30
2024-05-09T00:38:06.966Z,27.65
2024-05-09T00:40:40.622Z,28.10
2024-05-09T00:43:11.389Z,28.95
2024-05-09T00:45:39.030Z,28.88
2024-05-09T00:48:08.659Z,28.10
2024-05-09T00:50:41.419Z,28.30
2024-05-09T00:53:15.486Z,28.38
2024-05-09T00:55:45.240Z,26.17
2024-05-09T00:58:15.868Z,27.42
2024-05-09T01:00:44.421Z,27.35
2024-05-09T01:03:15.237Z,26.95
2024-05-09T01:05:43.615Z,26.42
2024-05-09T01:08:12.179Z,26.55
2024-05-09T01:10:43.728Z,26.25
2024-05-09T01:13:12.251Z,26.10
2024-05-09T01:15:39.321Z,25.63
2024-05-09T01:18:11.813Z,26.10
2024-05-09T01:20:43.227Z,26.27
2024-05-09T01:23:14.512Z,26.02
2024-05-09T01:25:43.571Z,24.85
2024-05-09T01:28:10.892Z,25.55
2024-05-09T01:30:38.651Z,26.08
2024-05-09T01:33:08.552Z,25.95
2024-05-09T01:35:38.937Z,26.13
2024-05-09T01:38:06.947Z,25.73
2024-05-09T01:40:38.560Z,25.77
2024-05-09T01:43:11.539Z,26.10
2024-05-09T01:45:40.341Z,25.83
2024-05-09T01:48:08.940Z,29.92
2024-05-09T01:50:40.243Z,25.30
2024-05-09T01:53:14.755Z,25.17
2024-05-09T01:55:45.399Z,26.30
2024-05-09T01:58:13.655Z,25.02
2024-05-09T02:00:48.105Z,25.45
2024-05-09T02:03:17.294Z,26.10
2024-05-09T02:05:47.370Z,25.40
2024-05-09T02:08:17.464Z,25.40
2024-05-09T02:10:47.274Z,24.85
2024-05-09T02:13:16.363Z,24.48
2024-05-09T02:15:43.675Z,23.08
2024-05-09T02:18:11.208Z,23.90
2024-05-09T02:20:40.882Z,23.15
2024-05-09T02:23:09.429Z,22.98
2024-05-09T02:25:36.806Z,22.85
2024-05-09T02:28:04.057Z,23.17
2024-05-09T02:30:39.286Z,23.80
2024-05-09T02:33:13.713Z,23.83
2024-05-09T02:35:43.084Z,23.42
2024-05-09T02:38:11.225Z,23.50
2024-05-09T02:40:39.663Z,23.00
2024-05-09T02:43:10.423Z,24.30
2024-05-09T02:45:39.956Z,23.75
2024-05-09T02:48:13.409Z,22.98
2024-05-09T02:50:42.622Z,24.90
2024-05-09T02:53:12.061Z,23.90
2024-05-09T02:55:39.832Z,24.25
2024-05-09T02:58:32.127Z,23.30
2024-05-09T03:00:59.134Z,23.17
2024-05-09T03:03:26.827Z,24.77
2024-05-09T03:05:54.132Z,23.02
2024-05-09T03:08:21.326Z,23.55
2024-05-09T03:10:48.448Z,22.25
2024-05-09T03:13:16.342Z,23.63
2024-05-09T03:15:44.786Z,23.10
2024-05-09T03:18:13.733Z,23.33
2024-05-09T03:20:41.093Z,22.05
2024-05-09T03:23:09.793Z,22.05
2024-05-09T03:25:38.334Z,21.83
2024-05-09T03:28:06.185Z,22.52
2024-05-09T03:30:40.506Z,21.98
2024-05-09T03:33:14.402Z,22.17
2024-05-09T03:35:44.028Z,21.95
2024-05-09T03:38:12.344Z,22.50
2024-05-09T03:40:51.206Z,22.45
2024-05-09T03:43:20.018Z,21.80
2024-05-09T03:45:49.473Z,23.92
2024-05-09T03:48:17.031Z,23.63
2024-05-09T03:50:44.638Z,22.17
2024-05-09T03:53:13.420Z,22.95
2024-05-09T03:55:40.907Z,23.80
2024-05-09T03:58:08.843Z,24.48
2024-05-09T04:00:39.234Z,23.95
2024-05-09T04:03:10.497Z,22.60
2024-05-09T04:05:40.860Z,23.10
2024-05-09T04:08:09.496Z,22.38
2024-05-09T04:10:36.707Z,21.67
2024-05-09T04:13:04.371Z,20.98
2024-05-09T04:15:32.315Z,21.50
2024-05-09T04:18:00.360Z,21.20
2024-05-09T04:20:36.155Z,21.38
2024-05-09T04:23:08.068Z,22.92
2024-05-09T04:25:37.074Z,21.83
2024-05-09T04:28:04.407Z,21.38
2024-05-09T04:30:37.980Z,22.42
2024-05-09T04:33:10.601Z,23.88
2024-05-09T04:35:39.701Z,23.50
2024-05-09T04:38:07.834Z,23.65
2024-05-09T04:40:36.967Z,23.70
2024-05-09T04:43:19.033Z,23.60
2024-05-09T04:45:46.458Z,25.92
2024-05-09T04:48:13.665Z,25.08
2024-05-09T04:50:41.065Z,22.63
2024-05-09T04:53:10.492Z,22.63
2024-05-09T04:55:39.161Z,21.60
2024-05-09T04:58:10.069Z,21.15
2024-05-09T05:00:39.140Z,22.70
2024-05-09T05:03:11.034Z,21.88
2024-05-09T05:05:41.827Z,21.92
2024-05-09T05:08:17.238Z,21.55
2024-05-09T05:10:46.274Z,21.70
2024-05-09T05:13:21.275Z,21.95
2024-05-09T05:15:51.264Z,22.00
2024-05-09T05:18:18.881Z,22.25
2024-05-09T05:20:46.331Z,23.55
2024-05-09T05:23:16.159Z,22.02
2024-05-09T05:25:43.802Z,23.23
2024-05-09T05:28:11.303Z,23.45
2024-05-09T05:30:39.256Z,23.77
2024-05-09T05:33:09.781Z,23.23
2024-05-09T05:35:37.577Z,23.33
2024-05-09T05:38:06.353Z,23.63
2024-05-09T05:40:37.088Z,23.80
2024-05-09T05:43:16.312Z,25.40
2024-05-09T05:45:43.697Z,25.67
2024-05-09T05:48:10.853Z,24.90
2024-05-09T05:50:38.962Z,26.02
2024-05-09T05:53:10.297Z,25.30
2024-05-09T05:55:39.052Z,28.60
2024-05-09T05:58:09.505Z,27.80
2024-05-09T06:00:39.273Z,28.85
2024-05-09T06:03:10.412Z,27.77
2024-05-09T06:05:46.298Z,28.38
2024-05-09T06:08:13.501Z,30.20
2024-05-09T06:10:41.652Z,29.90
2024-05-09T06:13:13.012Z,31.23
2024-05-09T06:15:41.272Z,33.42
2024-05-09T06:18:09.980Z,34.47
2024-05-09T06:20:39.774Z,35.83
2024-05-09T06:23:07.538Z,43.40
2024-05-09T06:25:38.620Z,46.15
2024-05-09T06:28:06.399Z,49.33
2024-05-09T06:30:40.779Z,50.53
2024-05-09T06:33:11.936Z,50.25
2024-05-09T06:35:41.121Z,52.95
2024-05-09T06:38:11.991Z,50.75
2024-05-09T06:40:42.450Z,51.50
2024-05-09T06:43:15.740Z,53.72
2024-05-09T06:45:47.035Z,55.25
2024-05-09T06:48:14.526Z,55.25
2024-05-09T06:50:42.019Z,55.63
2024-05-09T06:53:09.357Z,54.28
2024-05-09T06:55:37.284Z,54.90
2024-05-09T06:58:06.961Z,56.45
2024-05-09T07:00:39.202Z,54.17
2024-05-09T07:03:09.896Z,55.07
2024-05-09T07:05:37.594Z,49.95
2024-05-09T07:08:05.959Z,52.90
2024-05-09T07:10:36.147Z,52.63
2024-05-09T07:13:11.443Z,50.15
2024-05-09T07:15:38.826Z,50.25
2024-05-09T07:18:16.535Z,52.00
2024-05-09T07:20:45.656Z,50.58
2024-05-09T07:23:13.462Z,49.95
2024-05-09T07:25:41.363Z,49.53
2024-05-09T07:28:15.475Z,50.08
2024-05-09T07:30:43.427Z,49.93
2024-05-09T07:33:19.163Z,49.97
2024-05-09T07:35:49.552Z,51.10
2024-05-09T07:38:16.777Z,48.97
2024-05-09T07:40:43.840Z,50.50
2024-05-09T07:43:11.936Z,51.10
2024-05-09T07:45:48.791Z,51.10
2024-05-09T07:52:38.718Z,51.75
2024-05-09T07:53:49.622Z,51.25
2024-05-09T07:56:22.374Z,52.70
2024-05-09T07:58:53.056Z,51.78
2024-05-09T08:01:21.041Z,48.50
2024-05-09T08:03:49.997Z,50.42
2024-05-09T08:06:17.324Z,50.35
2024-05-09T08:08:50.777Z,49.72
2024-05-09T08:11:17.867Z,54.83
2024-05-09T08:13:45.405Z,53.42
2024-05-09T08:16:14.580Z,53.33
2024-05-09T08:18:48.831Z,53.35
2024-05-09T08:21:19.314Z,54.22
2024-05-09T08:23:47.817Z,52.58
2024-05-09T08:26:14.839Z,47.80
2024-05-09T08:28:41.818Z,41.28
2024-05-09T08:31:10.745Z,46.38
2024-05-09T08:33:47.141Z,51.47
2024-05-09T08:36:14.686Z,53.20
2024-05-09T08:38:48.158Z,49.63
2024-05-09T08:41:17.875Z,53.35
2024-05-09T08:43:44.943Z,53.33
2024-05-09T08:46:13.520Z,52.55
2024-05-09T08:48:43.335Z,51.15
2024-05-09T08:51:10.918Z,45.22
2024-05-09T08:53:37.972Z,52.97
2024-05-09T08:56:09.266Z,52.42
2024-05-09T08:58:37.433Z,48.58
2024-05-09T09:01:07.667Z,53.28
2024-05-09T09:03:37.778Z,51.78
2024-05-09T09:06:14.548Z,52.55
2024-05-09T09:08:41.879Z,54.88
2024-05-09T09:11:08.910Z,52.70
2024-05-09T09:13:35.947Z,52.83
2024-05-09T09:16:04.206Z,46.72
2024-05-09T09:18:32.810Z,55.20
2024-05-09T09:21:01.171Z,58.22
2024-05-09T09:23:29.936Z,57.33
2024-05-09T09:26:01.206Z,58.10
2024-05-09T09:28:28.476Z,59.65
2024-05-09T09:31:02.995Z,59.92
2024-05-09T09:33:32.056Z,60.45
2024-05-09T09:36:01.719Z,58.28
2024-05-09T09:38:31.509Z,53.53
2024-05-09T09:41:01.474Z,53.70
2024-05-09T09:43:29.867Z,51.35
2024-05-09T09:45:59.935Z,47.80
2024-05-09T09:48:30.855Z,49.55
2024-05-09T09:50:59.534Z,44.90
2024-05-09T09:53:29.585Z,45.47
2024-05-09T09:55:57.775Z,47.63
2024-05-09T09:58:25.421Z,47.60
2024-05-09T10:00:53.663Z,55.20
2024-05-09T10:03:23.364Z,57.28
2024-05-09T10:05:50.824Z,58.13
2024-05-09T10:08:18.909Z,56.38
2024-05-09T10:10:50.135Z,55.20
2024-05-09T10:13:18.158Z,56.42
2024-05-09T10:15:48.146Z,53.83
2024-05-09T10:18:16.068Z,48.17
2024-05-09T10:20:44.696Z,46.25
2024-05-09T10:23:30.003Z,49.85
2024-05-09T10:26:02.407Z,56.13
2024-05-09T10:28:31.205Z,57.90
2024-05-09T10:31:16.082Z,56.85
2024-05-09T10:33:53.801Z,56.33
2024-05-09T10:36:22.565Z,53.63
2024-05-09T10:38:54.406Z,57.33
2024-05-09T10:41:24.033Z,56.15
2024-05-09T10:43:52.146Z,57.25
2024-05-09T10:46:20.054Z,51.20
2024-05-09T10:48:50.434Z,53.47
2024-05-09T10:51:21.912Z,48.38
2024-05-09T10:53:51.249Z,50.60
2024-05-09T10:56:18.941Z,45.60
2024-05-09T10:58:48.136Z,47.25
2024-05-09T11:01:16.957Z,48.85
2024-05-09T11:03:49.687Z,48.53
2024-05-09T11:06:17.978Z,48.25
2024-05-09T11:08:46.868Z,48.63
2024-05-09T11:11:15.923Z,47.95
2024-05-09T11:13:46.554Z,47.63
2024-05-09T11:16:21.707Z,49.03
2024-05-09T11:18:56.689Z,51.35
2024-05-09T11:21:25.254Z,57.65
2024-05-09T11:23:53.697Z,56.80
2024-05-09T11:26:22.385Z,58.63
2024-05-09T11:28:50.880Z,54.53
2024-05-09T11:31:18.398Z,49.60
2024-05-09T11:33:45.827Z,54.17
2024-05-09T11:36:16.023Z,55.15
2024-05-09T11:38:43.373Z,59.08
2024-05-09T11:41:18.225Z,56.72
2024-05-09T11:43:45.252Z,50.80
2024-05-09T11:46:12.754Z,49.97
2024-05-09T11:48:40.315Z,50.65
2024-05-09T11:51:09.989Z,51.55
2024-05-09T11:53:37.318Z,50.45
2024-05-09T11:56:04.809Z,47.80
2024-05-09T11:58:37.526Z,47.55
2024-05-09T12:01:05.286Z,50.55
2024-05-09T12:03:34.993Z,50.33
2024-05-09T12:06:02.763Z,51.72
2024-05-09T12:08:30.011Z,59.38
2024-05-09T12:10:57.484Z,59.28
2024-05-09T12:13:24.728Z,57.83
2024-05-09T12:15:51.821Z,54.05
2024-05-09T12:18:18.940Z,56.28
2024-05-09T12:20:46.404Z,56.10
2024-05-09T12:23:13.364Z,56.35
2024-05-09T12:25:44.328Z,56.17
2024-05-09T12:28:11.488Z,52.88
2024-05-09T12:30:41.651Z,52.20
2024-05-09T12:33:13.398Z,50.15
2024-05-09T12:35:44.370Z,50.15
2024-05-09T12:38:15.596Z,50.75
2024-05-09T12:40:43.683Z,50.90
2024-05-09T12:43:11.826Z,49.05
2024-05-09T12:45:40.184Z,48.65
2024-05-09T12:48:12.334Z,47.47
2024-05-09T12:50:41.246Z,47.22
2024-05-09T12:53:09.044Z,46.55
2024-05-09T12:55:44.189Z,48.50
2024-05-09T12:58:24.765Z,47.95
2024-05-09T13:00:52.579Z,49.45
2024-05-09T13:03:20.492Z,49.58
2024-05-09T13:05:48.414Z,47.75
2024-05-09T13:08:15.951Z,47.45
2024-05-09T13:10:43.408Z,46.47
2024-05-09T13:13:11.287Z,44.45
2024-05-09T13:15:38.864Z,49.15
2024-05-09T13:18:06.740Z,52.88
2024-05-09T13:20:36.089Z,55.13
2024-05-09T13:23:05.879Z,52.80
2024-05-09T13:25:36.509Z,53.10
2024-05-09T13:28:04.800Z,54.42
2024-05-09T13:30:39.668Z,50.78
2024-05-09T13:33:13.755Z,50.63
2024-05-09T13:35:46.631Z,49.53
2024-05-09T13:38:16.877Z,47.80
2024-05-09T13:40:44.452Z,46.58
2024-05-09T13:43:11.840Z,49.45
2024-05-09T13:45:39.743Z,46.13
2024-05-09T13:48:09.563Z,54.67
2024-05-09T13:50:37.354Z,50.72
2024-05-09T13:53:08.861Z,51.40
2024-05-09T13:55:39.708Z,49.88
2024-05-09T13:58:08.743Z,49.53
2024-05-09T14:00:45.935Z,49.47
2024-05-09T14:03:18.796Z,53.50
2024-05-09T14:05:48.034Z,52.55
2024-05-09T14:08:15.827Z,51.60
2024-05-09T14:10:46.481Z,50.88
2024-05-09T14:13:13.917Z,49.40
2024-05-09T14:15:41.352Z,50.30
2024-05-09T14:18:12.577Z,50.90
2024-05-09T14:20:44.261Z,48.95
2024-05-09T14:23:11.455Z,49.13
2024-05-09T14:25:42.600Z,49.97
2024-05-09T14:28:12.142Z,47.42
2024-05-09T14:30:40.012Z,46.10
2024-05-09T14:33:08.920Z,45.03
2024-05-09T14:35:38.520Z,45.75
2024-05-09T14:38:09.934Z,46.83
2024-05-09T14:40:42.238Z,53.97
2024-05-09T14:43:12.572Z,47.22
2024-05-09T14:45:40.482Z,47.78
2024-05-09T14:48:08.387Z,51.25
2024-05-09T14:50:39.691Z,51.83
2024-05-09T14:53:08.999Z,50.70
2024-05-09T14:55:38.870Z,51.45
2024-05-09T14:58:08.490Z,54.00
2024-05-09T15:00:46.799Z,52.33
2024-05-09T15:03:21.106Z,54.83
2024-05-09T15:05:49.828Z,49.50
2024-05-09T15:08:18.368Z,51.95
2024-05-09T15:10:46.016Z,52.42
2024-05-09T15:13:16.215Z,52.88
2024-05-09T15:15:44.236Z,53.03
2024-05-09T15:18:11.629Z,52.63
2024-05-09T15:20:40.983Z,52.78
2024-05-09T15:23:08.205Z,54.90
2024-05-09T15:25:36.667Z,54.00
2024-05-09T15:28:05.372Z,53.38
2024-05-09T15:30:34.234Z,53.53
2024-05-09T15:33:06.938Z,51.72
2024-05-09T15:35:36.058Z,51.38
2024-05-09T15:38:03.783Z,48.75
2024-05-09T15:40:38.502Z,46.72
2024-05-09T15:43:09.833Z,47.75
2024-05-09T15:45:38.418Z,52.28
2024-05-09T15:48:06.618Z,48.95
2024-05-09T15:50:38.889Z,52.78
2024-05-09T15:53:11.547Z,42.60
2024-05-09T15:55:39.722Z,47.70
2024-05-09T15:58:07.658Z,51.10
2024-05-09T16:00:39.975Z,48.92
2024-05-09T16:03:10.660Z,48.20
2024-05-09T16:05:38.506Z,54.95
2024-05-09T16:08:07.776Z,53.95
2024-05-09T16:10:38.683Z,55.28
2024-05-09T16:13:06.408Z,56.45
2024-05-09T16:15:33.819Z,47.67
2024-05-09T16:18:01.819Z,46.28
2024-05-09T16:20:38.064Z,48.55
2024-05-09T16:23:08.833Z,44.83
2024-05-09T16:25:39.092Z,49.67
2024-05-09T16:28:09.937Z,48.25
2024-05-09T16:30:39.409Z,51.33
2024-05-09T16:33:07.619Z,53.78
2024-05-09T16:35:35.600Z,52.53
2024-05-09T16:38:04.844Z,48.33
2024-05-09T16:40:38.563Z,46.28
2024-05-09T16:43:12.519Z,47.55
2024-05-09T16:45:41.565Z,47.33
2024-05-09T16:48:09.531Z,46.63
2024-05-09T16:50:37.166Z,48.17
2024-05-09T16:53:07.693Z,46.38
2024-05-09T16:55:36.141Z,47.55
2024-05-09T16:58:04.273Z,54.95
2024-05-09T17:00:40.042Z,45.53
2024-05-09T17:03:11.922Z,45.80
2024-05-09T17:05:41.450Z,45.67
2024-05-09T17:08:12.363Z,46.40
2024-05-09T17:10:42.201Z,49.00
2024-05-09T17:13:10.160Z,49.45
2024-05-09T17:15:43.879Z,46.88
2024-05-09T17:18:11.501Z,48.30
2024-05-09T17:20:38.549Z,54.95
2024-05-09T17:23:15.502Z,60.35
2024-05-09T17:25:43.837Z,56.50
2024-05-09T17:28:11.597Z,58.47
2024-05-09T17:30:40.979Z,57.13
2024-05-09T17:33:10.932Z,45.08
2024-05-09T17:35:38.998Z,46.70
2024-05-09T17:38:08.161Z,44.63
2024-05-09T17:40:37.397Z,50.38
2024-05-09T17:43:08.863Z,54.85
2024-05-09T17:45:38.961Z,46.38
2024-05-09T17:48:07.539Z,45.15
2024-05-09T17:50:37.602Z,45.05
2024-05-09T17:53:06.801Z,42.15
2024-05-09T17:55:34.792Z,43.38
2024-05-09T17:58:04.703Z,42.75
2024-05-09T18:00:38.234Z,42.60
2024-05-09T18:03:14.213Z,43.80
2024-05-09T18:05:43.195Z,44.47
2024-05-09T18:08:13.550Z,46.92
2024-05-09T18:10:41.622Z,42.78
2024-05-09T18:13:09.700Z,41.40
2024-05-09T18:15:37.539Z,40.90
2024-05-09T18:18:07.196Z,42.00
2024-05-09T18:20:43.113Z,43.13
2024-05-09T18:23:16.381Z,43.53
2024-05-09T18:25:45.209Z,42.00
2024-05-09T18:28:12.675Z,41.92
2024-05-09T18:30:40.495Z,41.83
2024-05-09T18:33:11.558Z,42.95
2024-05-09T18:35:41.041Z,44.30
2024-05-09T18:38:09.217Z,44.60
2024-05-09T18:40:38.833Z,44.30
2024-05-09T18:43:08.897Z,43.33
2024-05-09T18:45:40.120Z,43.80
2024-05-09T18:48:09.115Z,44.28
2024-05-09T18:50:39.770Z,44.72
2024-05-09T18:53:13.261Z,32.00
2024-05-09T18:55:41.742Z,28.40
2024-05-09T18:58:08.985Z,29.13
2024-05-09T19:00:38.931Z,28.70
2024-05-09T19:03:11.234Z,40.88
2024-05-09T19:05:41.241Z,30.25
2024-05-09T19:08:09.395Z,30.95
2024-05-09T19:10:38.443Z,30.67
2024-05-09T19:13:10.181Z,31.85
2024-05-09T19:15:43.232Z,32.83
2024-05-09T19:18:15.268Z,31.88
2024-05-09T19:20:43.518Z,30.80
2024-05-09T19:23:12.054Z,30.23
2024-05-09T19:25:40.589Z,30.58
2024-05-09T19:28:09.544Z,30.52
2024-05-09T19:30:40.887Z,29.85
2024-05-09T19:33:12.478Z,30.05
2024-05-09T19:35:40.569Z,28.52
2024-05-09T19:38:08.077Z,28.20
2024-05-09T19:40:35.995Z,28.75
2024-05-09T19:43:04.968Z,28.38
2024-05-09T19:45:34.028Z,39.20
2024-05-09T19:48:04.088Z,38.72
2024-05-09T19:50:39.720Z,28.33
2024-05-09T19:53:11.594Z,27.48
2024-05-09T19:55:39.110Z,27.13
2024-05-09T19:58:31.684Z,27.35
2024-05-09T20:01:06.155Z,28.17
2024-05-09T20:03:37.460Z,27.42
2024-05-09T20:06:06.319Z,28.08
2024-05-09T20:08:33.394Z,28.85
2024-05-09T20:11:02.504Z,28.45
2024-05-09T20:13:29.561Z,30.08
2024-05-09T20:15:56.802Z,29.65
2024-05-09T20:18:26.746Z,28.00
2024-05-09T20:20:54.399Z,29.20
2024-05-09T20:23:21.883Z,28.02
2024-05-09T20:25:50.005Z,26.70
2024-05-09T20:28:18.405Z,26.40
2024-05-09T20:30:45.925Z,25.90
2024-05-09T20:33:14.200Z,27.20
2024-05-09T20:35:41.602Z,26.27
2024-05-09T20:38:08.594Z,26.15
2024-05-09T20:40:39.297Z,25.73
2024-05-09T20:43:12.486Z,25.52
2024-05-09T20:45:41.270Z,26.17
2024-05-09T20:48:09.820Z,25.20
2024-05-09T20:50:41.092Z,26.10
2024-05-09T20:53:12.493Z,25.83
2024-05-09T20:55:40.781Z,26.30
2024-05-09T20:58:08.866Z,27.00
2024-05-09T21:00:40.390Z,25.95
2024-05-09T21:03:11.704Z,26.00
2024-05-09T21:05:39.618Z,26.40
2024-05-09T21:08:08.423Z,26.35
2024-05-09T21:10:36.395Z,25.98
2024-05-09T21:13:04.762Z,26.60
2024-05-09T21:15:33.432Z,26.63
2024-05-09T21:18:00.961Z,27.02
2024-05-09T21:20:31.739Z,27.45
2024-05-09T21:23:02.771Z,27.23
2024-05-09T21:25:30.455Z,27.10
2024-05-09T21:27:57.526Z,26.85
2024-05-09T21:30:36.981Z,26.52
2024-05-09T21:33:09.934Z,28.27
2024-05-09T21:35:40.537Z,27.83
2024-05-09T21:38:07.935Z,27.48
2024-05-09T21:40:37.042Z,28.42
2024-05-09T21:43:06.827Z,28.38
2024-05-09T21:45:35.061Z,30.83
2024-05-09T21:48:06.750Z,29.65
2024-05-09T21:50:39.972Z,30.70
2024-05-09T21:55:36.845Z,30.00
2024-05-09T21:58:04.245Z,30.13
2024-05-09T22:00:36.967Z,29.85
